Lake Buena Vista, Florida
Current Conditions -  °F | °C
As of 10:45 PM on Wednesday 26 Nov 2014 (Local Time) from KISM Reporting Station
Clear Clear  
Wind Chill: 50°   Ceiling: Unl
Heat Index: 50°   Visibility: 10mi
Dew Point: 48°   Wind: 5mph
Humidity: 94%   Direction: 280°W
Pressure: 30.21"   Gusts: NA
Location:  28.37°N, 81.52°W
Report Text: KISM 270245Z 28004KT 10SM SKC 10/09 A3021 RMK LAST
Loading
Personal Weather Stations






























Interactive Weather Map New forecast layout! Learn more

10-Day Weather Forecast

Advertisements
Track Severe Weather on mobile